createdAt,value
2018-08-28T00:01:22.874Z,80.60
2018-08-28T00:03:52.198Z,81.40
2018-08-28T00:06:21.337Z,82.80
2018-08-28T00:08:50.511Z,85.60
2018-08-28T00:11:19.457Z,87.80
2018-08-28T00:13:48.451Z,89.10
2018-08-28T00:16:17.405Z,90.10
2018-08-28T00:18:46.285Z,90.30
2018-08-28T00:21:15.191Z,90.50
2018-08-28T00:23:44.120Z,90.00
2018-08-28T00:26:12.999Z,89.60
2018-08-28T00:28:41.875Z,90.10
2018-08-28T00:31:10.783Z,87.50
2018-08-28T00:33:39.646Z,82.70
2018-08-28T00:36:08.480Z,79.60
2018-08-28T00:38:37.410Z,78.20
2018-08-28T00:41:06.321Z,77.30
2018-08-28T00:43:35.203Z,76.60
2018-08-28T00:46:04.116Z,75.90
2018-08-28T00:48:33.001Z,74.30
2018-08-28T00:51:01.854Z,73.00
2018-08-28T00:53:30.748Z,72.00
2018-08-28T00:55:59.633Z,69.20
2018-08-28T00:58:28.520Z,67.50
2018-08-28T01:00:57.456Z,67.00
2018-08-28T01:03:26.313Z,65.30
2018-08-28T01:05:55.194Z,64.40
2018-08-28T01:08:24.091Z,63.70
2018-08-28T01:10:52.988Z,63.40
2018-08-28T01:13:21.857Z,63.20
2018-08-28T01:15:50.750Z,65.00
2018-08-28T01:18:19.613Z,66.30
2018-08-28T01:20:48.507Z,67.70
2018-08-28T01:23:17.376Z,69.40
2018-08-28T01:25:46.300Z,71.30
2018-08-28T01:28:15.218Z,72.10
2018-08-28T01:30:44.087Z,73.30
2018-08-28T01:33:12.960Z,73.80
2018-08-28T01:35:41.800Z,74.50
2018-08-28T01:38:10.711Z,74.50
2018-08-28T01:40:39.569Z,74.20
2018-08-28T01:43:13.647Z,72.90
2018-08-28T01:45:42.482Z,72.10
2018-08-28T01:48:11.350Z,70.80
2018-08-28T01:50:40.189Z,70.70
2018-08-28T01:53:09.118Z,70.70
2018-08-28T01:55:37.980Z,71.00
2018-08-28T01:58:06.911Z,71.60
2018-08-28T02:00:35.746Z,72.70
2018-08-28T02:03:04.596Z,73.00
2018-08-28T02:05:33.487Z,73.40
2018-08-28T02:08:02.367Z,73.90
2018-08-28T02:10:31.240Z,73.50
2018-08-28T02:13:00.216Z,73.40
2018-08-28T02:15:29.083Z,74.30
2018-08-28T02:17:57.964Z,75.70
2018-08-28T02:20:26.891Z,76.90
2018-08-28T02:22:55.764Z,77.00
2018-08-28T02:25:24.635Z,75.80
2018-08-28T02:27:53.632Z,75.30
2018-08-28T02:30:22.487Z,74.80
2018-08-28T02:32:51.433Z,74.00
2018-08-28T02:35:20.356Z,73.20
2018-08-28T02:37:49.237Z,73.40
2018-08-28T02:40:18.105Z,73.20
2018-08-28T02:42:47.035Z,71.80
2018-08-28T02:45:15.917Z,72.00
2018-08-28T02:47:44.825Z,71.40
2018-08-28T02:50:13.754Z,72.10
2018-08-28T02:52:42.623Z,70.90
2018-08-28T02:55:11.535Z,71.30
2018-08-28T02:57:40.354Z,70.80
2018-08-28T03:00:09.264Z,70.80
2018-08-28T03:02:38.194Z,70.30
2018-08-28T03:05:07.133Z,70.00
2018-08-28T03:07:35.978Z,69.50
2018-08-28T03:10:04.924Z,68.50
2018-08-28T03:12:33.754Z,68.20
2018-08-28T03:15:02.693Z,68.40
2018-08-28T03:17:31.555Z,69.10
2018-08-28T03:20:00.389Z,69.80
2018-08-28T03:22:29.314Z,70.40
2018-08-28T03:24:58.239Z,70.30
2018-08-28T03:27:27.136Z,70.90
2018-08-28T03:29:55.999Z,71.40
2018-08-28T03:32:24.873Z,71.90
2018-08-28T03:34:53.855Z,73.50
2018-08-28T03:37:22.767Z,74.60
2018-08-28T03:39:51.637Z,75.80
2018-08-28T03:42:20.520Z,76.80
2018-08-28T03:44:49.428Z,78.00
2018-08-28T03:47:18.268Z,79.30
2018-08-28T03:49:47.123Z,80.40
2018-08-28T03:52:15.990Z,81.00
2018-08-28T03:54:44.927Z,81.80
2018-08-28T03:57:13.777Z,82.70
2018-08-28T03:59:42.647Z,85.20
2018-08-28T04:02:11.525Z,86.30
2018-08-28T04:04:40.413Z,87.20
2018-08-28T04:07:09.291Z,89.10
2018-08-28T04:09:38.182Z,89.10
2018-08-28T04:12:07.032Z,90.40
2018-08-28T04:14:35.924Z,90.50
2018-08-28T04:17:04.857Z,91.50
2018-08-28T04:19:33.779Z,92.20
2018-08-28T04:22:02.617Z,92.70
2018-08-28T04:24:31.522Z,92.70
2018-08-28T04:27:00.424Z,93.20
2018-08-28T04:29:29.393Z,94.10
2018-08-28T04:31:58.274Z,94.80
2018-08-28T04:34:27.108Z,95.20
2018-08-28T04:36:56.000Z,95.40
2018-08-28T04:39:24.882Z,95.60
2018-08-28T04:41:53.819Z,95.40
2018-08-28T04:44:22.654Z,95.40
2018-08-28T04:46:51.506Z,94.60
2018-08-28T04:49:20.340Z,93.80
2018-08-28T04:51:49.315Z,92.30
2018-08-28T04:54:18.202Z,92.70
2018-08-28T04:56:47.090Z,93.10
2018-08-28T04:59:15.921Z,92.60
2018-08-28T05:01:44.762Z,91.70
2018-08-28T05:04:13.618Z,91.30
2018-08-28T05:06:42.444Z,91.30
2018-08-28T05:09:11.295Z,90.50
2018-08-28T05:11:40.137Z,90.50
2018-08-28T05:14:09.055Z,90.00
2018-08-28T05:16:37.935Z,90.40
2018-08-28T05:19:06.861Z,89.60
2018-08-28T05:21:35.881Z,89.20
2018-08-28T05:24:04.829Z,88.10
2018-08-28T05:26:33.652Z,87.10
2018-08-28T05:29:02.552Z,86.70
2018-08-28T05:31:31.378Z,84.50
2018-08-28T05:34:00.270Z,85.00
2018-08-28T05:36:29.169Z,85.30
2018-08-28T05:38:58.102Z,84.60
2018-08-28T05:41:27.016Z,84.00
2018-08-28T05:43:55.866Z,81.80
2018-08-28T05:46:24.759Z,81.00
2018-08-28T05:48:53.583Z,78.80
2018-08-28T05:51:22.724Z,76.80
2018-08-28T05:53:51.591Z,77.00
2018-08-28T05:56:20.556Z,78.30
2018-08-28T05:58:49.443Z,78.80
2018-08-28T06:01:18.387Z,77.70
2018-08-28T06:03:47.392Z,76.80
2018-08-28T06:06:16.252Z,76.00
2018-08-28T06:08:45.533Z,75.20
2018-08-28T06:11:14.407Z,75.80
2018-08-28T06:13:43.404Z,74.00
2018-08-28T06:16:12.352Z,73.00
2018-08-28T06:18:41.241Z,72.50
2018-08-28T06:21:10.177Z,71.80
2018-08-28T06:23:39.039Z,71.40
2018-08-28T06:26:07.953Z,68.20
2018-08-28T06:28:37.612Z,64.20
2018-08-28T06:31:06.489Z,62.50
2018-08-28T06:33:44.869Z,62.10
2018-08-28T06:36:16.340Z,59.20
2018-08-28T06:38:45.399Z,58.80
2018-08-28T06:41:14.608Z,58.70
2018-08-28T06:43:44.158Z,57.80
2018-08-28T06:46:13.584Z,56.50
2018-08-28T06:48:43.072Z,58.20
2018-08-28T06:51:12.228Z,57.10
2018-08-28T06:53:41.119Z,57.60
2018-08-28T06:56:10.924Z,58.40
2018-08-28T06:58:39.809Z,59.10
2018-08-28T07:01:09.093Z,59.00
2018-08-28T07:03:38.072Z,61.20
2018-08-28T07:06:07.217Z,62.10
2018-08-28T07:08:37.129Z,62.30
2018-08-28T07:11:06.383Z,62.30
2018-08-28T07:13:35.552Z,62.20
2018-08-28T07:16:04.576Z,60.70
2018-08-28T07:18:34.730Z,60.60
2018-08-28T07:21:03.620Z,62.10
2018-08-28T07:23:35.009Z,61.90
2018-08-28T07:26:05.673Z,60.40
2018-08-28T07:28:34.723Z,59.40
2018-08-28T07:31:08.584Z,58.30
2018-08-28T07:33:38.515Z,56.90
2018-08-28T07:36:07.445Z,55.70
2018-08-28T07:38:36.296Z,55.50
2018-08-28T07:41:05.321Z,53.50
2018-08-28T07:43:35.503Z,54.20
2018-08-28T07:46:05.330Z,54.00
2018-08-28T07:48:36.050Z,55.00
2018-08-28T07:51:05.036Z,54.30
2018-08-28T07:53:34.143Z,53.70
2018-08-28T07:56:04.194Z,52.80
2018-08-28T07:58:34.431Z,52.20
2018-08-28T08:01:04.504Z,50.70
2018-08-28T08:03:35.514Z,49.20
2018-08-28T08:06:05.226Z,48.80
2018-08-28T08:08:35.550Z,50.20
2018-08-28T08:11:05.859Z,49.00
2018-08-28T08:13:34.737Z,49.20
2018-08-28T08:16:04.474Z,49.20
2018-08-28T08:18:34.167Z,49.40
2018-08-28T08:21:03.084Z,50.80
2018-08-28T08:23:31.971Z,50.80
2018-08-28T08:26:00.871Z,52.30
2018-08-28T08:28:29.841Z,53.40
2018-08-28T08:30:58.771Z,53.90
2018-08-28T08:33:27.749Z,51.80
2018-08-28T08:35:56.708Z,51.60
2018-08-28T08:38:25.612Z,50.40
2018-08-28T08:40:54.487Z,51.10
2018-08-28T08:43:23.473Z,49.60
2018-08-28T08:45:52.546Z,49.00
2018-08-28T08:48:25.736Z,47.10
2018-08-28T08:50:55.422Z,45.10
2018-08-28T08:53:26.533Z,44.40
2018-08-28T08:55:56.920Z,39.60
2018-08-28T08:58:26.052Z,37.50
2018-08-28T09:00:56.266Z,37.60
2018-08-28T09:03:25.157Z,37.30
2018-08-28T09:05:54.163Z,39.40
2018-08-28T09:08:23.334Z,41.50
2018-08-28T09:10:52.238Z,40.50
2018-08-28T09:13:21.237Z,42.30
2018-08-28T09:15:50.253Z,42.50
2018-08-28T09:18:19.312Z,42.00
2018-08-28T09:20:48.335Z,41.60
2018-08-28T09:23:17.296Z,39.30
2018-08-28T09:25:46.177Z,33.90
2018-08-28T09:28:15.393Z,31.30
2018-08-28T09:30:44.499Z,30.60
2018-08-28T09:33:13.556Z,32.30
2018-08-28T09:35:42.502Z,33.40
2018-08-28T09:38:11.443Z,32.00
2018-08-28T09:40:40.409Z,32.60
2018-08-28T09:43:09.360Z,31.60
2018-08-28T09:45:38.430Z,32.00
2018-08-28T09:48:07.384Z,30.30
2018-08-28T09:50:36.475Z,29.90
2018-08-28T09:53:05.493Z,30.80
2018-08-28T09:55:34.894Z,31.60
2018-08-28T09:58:03.896Z,33.50
2018-08-28T10:00:36.975Z,35.00
2018-08-28T10:03:06.463Z,34.50
2018-08-28T10:05:36.072Z,34.00
2018-08-28T10:08:05.010Z,33.00
2018-08-28T10:10:33.913Z,31.70
2018-08-28T10:13:02.781Z,32.10
2018-08-28T10:15:31.700Z,32.10
2018-08-28T10:18:00.548Z,32.50
2018-08-28T10:20:29.428Z,32.80
2018-08-28T10:22:58.396Z,32.30
2018-08-28T10:25:27.278Z,31.40
2018-08-28T10:27:56.117Z,30.50
2018-08-28T10:30:25.162Z,30.10
2018-08-28T10:32:53.961Z,29.40
2018-08-28T10:35:22.885Z,29.60
2018-08-28T10:37:51.821Z,29.70
2018-08-28T10:40:20.751Z,30.90
2018-08-28T10:42:49.683Z,32.20
2018-08-28T10:45:18.552Z,31.90
2018-08-28T10:47:47.459Z,31.00
2018-08-28T10:50:16.396Z,30.00
2018-08-28T10:52:45.373Z,31.40
2018-08-28T10:55:14.285Z,31.70
2018-08-28T10:57:43.197Z,32.40
2018-08-28T11:00:12.150Z,31.60
2018-08-28T11:02:41.139Z,32.50
2018-08-28T11:05:10.102Z,33.30
2018-08-28T11:07:38.994Z,34.40
2018-08-28T11:10:08.379Z,33.10
2018-08-28T11:12:37.199Z,33.30
2018-08-28T11:15:06.139Z,33.50
2018-08-28T11:17:35.028Z,33.30
2018-08-28T11:20:03.940Z,30.80
2018-08-28T11:22:33.643Z,30.90
2018-08-28T11:25:02.547Z,30.50
2018-08-28T11:27:31.683Z,29.70
2018-08-28T11:30:00.687Z,29.90
2018-08-28T11:32:29.537Z,29.70
2018-08-28T11:34:58.464Z,30.90
2018-08-28T11:37:27.465Z,31.80
2018-08-28T11:39:56.324Z,32.60
2018-08-28T11:42:25.270Z,31.80
2018-08-28T11:44:54.274Z,31.00
2018-08-28T11:47:23.166Z,31.00
2018-08-28T11:49:52.261Z,31.00
2018-08-28T11:52:21.156Z,29.30
2018-08-28T11:54:50.105Z,31.00
2018-08-28T11:57:19.044Z,32.10
2018-08-28T11:59:47.999Z,31.90
2018-08-28T12:02:16.869Z,31.60
2018-08-28T12:04:45.764Z,30.80
2018-08-28T12:07:14.648Z,30.70
2018-08-28T12:09:43.657Z,30.30
2018-08-28T12:12:12.527Z,30.30
2018-08-28T12:14:41.428Z,30.30
2018-08-28T12:17:10.325Z,30.20
2018-08-28T12:19:39.209Z,31.00
2018-08-28T12:22:08.072Z,30.00
2018-08-28T12:24:37.018Z,30.80
2018-08-28T12:27:05.977Z,30.20
2018-08-28T12:29:34.934Z,30.40
2018-08-28T12:32:03.839Z,30.50
2018-08-28T12:34:32.791Z,27.90
2018-08-28T12:37:01.715Z,26.90
2018-08-28T12:39:30.630Z,26.80
2018-08-28T12:42:00.275Z,25.20
2018-08-28T12:44:29.112Z,25.40
2018-08-28T12:46:58.065Z,25.90
2018-08-28T12:49:26.926Z,25.40
2018-08-28T12:51:56.025Z,25.70
2018-08-28T12:54:26.117Z,24.60
2018-08-28T12:56:54.984Z,25.60
2018-08-28T12:59:23.846Z,25.00
2018-08-28T13:01:54.542Z,24.80
2018-08-28T13:04:23.440Z,23.60
2018-08-28T13:06:52.417Z,23.20
2018-08-28T13:09:21.309Z,23.20
2018-08-28T13:11:50.227Z,23.50
2018-08-28T13:14:19.372Z,24.30
2018-08-28T13:16:48.243Z,25.00
2018-08-28T13:19:17.162Z,25.70
2018-08-28T13:21:46.065Z,26.00
2018-08-28T13:24:14.950Z,25.50
2018-08-28T13:26:43.787Z,26.20
2018-08-28T13:29:12.700Z,26.40
2018-08-28T13:31:41.553Z,26.20
2018-08-28T13:34:10.607Z,25.80
2018-08-28T13:36:39.556Z,25.30
2018-08-28T13:39:08.650Z,25.20
2018-08-28T13:41:38.313Z,24.60
2018-08-28T13:44:07.551Z,25.40
2018-08-28T13:46:36.390Z,25.30
2018-08-28T13:49:05.352Z,25.90
2018-08-28T13:51:34.357Z,26.20
2018-08-28T13:54:03.258Z,26.30
2018-08-28T13:56:32.203Z,27.70
2018-08-28T13:59:04.092Z,28.60
2018-08-28T14:01:33.143Z,27.30
2018-08-28T14:04:06.724Z,26.90
2018-08-28T14:06:35.788Z,27.90
2018-08-28T14:09:05.872Z,28.00
2018-08-28T14:11:36.982Z,27.90
2018-08-28T14:14:07.209Z,27.50
2018-08-28T14:16:36.176Z,28.30
2018-08-28T14:19:05.176Z,28.80
2018-08-28T14:21:34.036Z,28.40
2018-08-28T14:24:03.120Z,28.50
2018-08-28T14:26:32.053Z,28.70
2018-08-28T14:29:02.632Z,28.50
2018-08-28T14:31:32.016Z,28.80
2018-08-28T14:34:01.123Z,28.90
2018-08-28T14:36:30.204Z,28.50
2018-08-28T14:38:59.113Z,29.00
2018-08-28T14:41:27.999Z,29.10
2018-08-28T14:43:57.001Z,29.20
2018-08-28T14:46:25.923Z,28.80
2018-08-28T14:48:55.461Z,28.80
2018-08-28T14:51:24.373Z,29.30
2018-08-28T14:53:55.022Z,29.50
2018-08-28T14:56:24.022Z,29.10
2018-08-28T14:58:52.935Z,29.40
2018-08-28T15:01:21.826Z,29.20
2018-08-28T15:03:50.674Z,28.70
2018-08-28T15:06:19.601Z,29.10
2018-08-28T15:08:48.463Z,28.80
2018-08-28T15:11:17.396Z,29.30
2018-08-28T15:13:46.368Z,29.20
2018-08-28T15:16:15.386Z,29.60
2018-08-28T15:18:45.626Z,30.40
2018-08-28T15:21:14.677Z,30.70
2018-08-28T15:23:44.968Z,30.90
2018-08-28T15:26:15.215Z,29.60
2018-08-28T15:28:44.171Z,30.30
2018-08-28T15:31:13.831Z,29.40
2018-08-28T15:33:43.667Z,28.80
2018-08-28T15:36:12.653Z,28.70
2018-08-28T15:38:41.615Z,28.70
2018-08-28T15:41:12.514Z,29.50
2018-08-28T15:43:41.466Z,29.20
2018-08-28T15:46:18.309Z,28.60
2018-08-28T15:48:47.285Z,28.50
2018-08-28T15:51:18.503Z,28.80
2018-08-28T15:53:48.763Z,28.80
2018-08-28T15:59:08.139Z,28.30
2018-08-28T16:01:38.260Z,28.10
2018-08-28T16:04:07.325Z,28.20
2018-08-28T16:06:36.193Z,28.20
2018-08-28T16:09:16.611Z,27.30
2018-08-28T16:12:29.150Z,28.30
2018-08-28T16:15:04.759Z,28.20
2018-08-28T16:20:51.642Z,28.10
2018-08-28T16:23:28.214Z,28.10
2018-08-28T16:26:40.019Z,27.60
2018-08-28T16:29:09.359Z,28.00
2018-08-28T16:31:38.268Z,28.00
2018-08-28T16:34:08.986Z,28.20
2018-08-28T16:36:37.886Z,28.80
2018-08-28T16:39:08.182Z,28.70
2018-08-28T16:41:37.487Z,28.40
2018-08-28T16:44:06.727Z,27.90
2018-08-28T16:46:36.099Z,28.10
2018-08-28T16:49:05.139Z,29.00
2018-08-28T16:51:34.144Z,27.80
2018-08-28T16:54:03.564Z,27.90
2018-08-28T16:56:32.588Z,28.30
2018-08-28T16:59:01.549Z,28.50
2018-08-28T17:01:30.583Z,29.00
2018-08-28T17:03:59.673Z,28.40
2018-08-28T17:06:28.559Z,29.20
2018-08-28T17:08:57.622Z,28.90
2018-08-28T17:11:26.598Z,29.20
2018-08-28T17:13:55.515Z,29.30
2018-08-28T17:16:24.707Z,29.60
2018-08-28T17:18:53.639Z,29.50
2018-08-28T17:21:22.517Z,29.50
2018-08-28T17:23:51.403Z,29.60
2018-08-28T17:26:20.319Z,30.00
2018-08-28T17:28:49.161Z,30.00
2018-08-28T17:31:18.139Z,30.60
2018-08-28T17:33:47.090Z,30.70
2018-08-28T17:36:16.016Z,30.80
2018-08-28T17:38:45.000Z,31.80
2018-08-28T17:41:13.828Z,32.20
2018-08-28T17:43:42.765Z,32.60
2018-08-28T17:46:11.702Z,32.60
2018-08-28T17:48:40.590Z,32.60
2018-08-28T17:51:09.497Z,32.90
2018-08-28T17:53:38.458Z,33.10
2018-08-28T17:56:07.343Z,34.60
2018-08-28T17:58:36.253Z,35.70
2018-08-28T18:01:05.309Z,35.30
2018-08-28T18:03:34.237Z,36.60
2018-08-28T18:06:03.123Z,37.20
2018-08-28T18:08:32.230Z,36.80
2018-08-28T18:11:01.114Z,38.50
2018-08-28T18:13:29.973Z,38.40
2018-08-28T18:15:58.944Z,38.60
2018-08-28T18:18:27.809Z,40.10
2018-08-28T18:20:56.718Z,39.70
2018-08-28T18:23:25.612Z,40.20
2018-08-28T18:25:54.508Z,40.20
2018-08-28T18:28:23.405Z,40.20
2018-08-28T18:30:52.418Z,40.30
2018-08-28T18:33:21.333Z,40.40
2018-08-28T18:35:50.248Z,41.40
2018-08-28T18:38:19.275Z,43.60
2018-08-28T18:40:48.299Z,44.20
2018-08-28T18:43:17.192Z,43.80
2018-08-28T18:45:46.196Z,45.50
2018-08-28T18:48:15.118Z,45.20
2018-08-28T18:50:43.985Z,46.00
2018-08-28T18:53:12.911Z,46.20
2018-08-28T18:55:41.822Z,47.70
2018-08-28T18:58:10.784Z,49.60
2018-08-28T19:00:39.773Z,50.40
2018-08-28T19:03:08.731Z,51.10
2018-08-28T19:05:37.605Z,51.10
2018-08-28T19:08:06.505Z,50.70
2018-08-28T19:10:35.495Z,49.90
2018-08-28T19:13:05.279Z,49.50
2018-08-28T19:15:34.177Z,50.20
2018-08-28T19:18:03.223Z,50.50
2018-08-28T19:20:32.242Z,51.50
2018-08-28T19:23:01.243Z,52.20
2018-08-28T19:25:30.175Z,52.50
2018-08-28T19:27:59.049Z,53.10
2018-08-28T19:30:27.972Z,53.50
2018-08-28T19:32:56.889Z,54.30
2018-08-28T19:35:25.759Z,54.60
2018-08-28T19:37:54.702Z,55.50
2018-08-28T19:40:23.595Z,58.30
2018-08-28T19:42:52.527Z,58.80
2018-08-28T19:45:21.428Z,61.00
2018-08-28T19:47:50.328Z,61.90
2018-08-28T19:50:19.246Z,62.90
2018-08-28T19:52:48.123Z,64.30
2018-08-28T19:55:17.612Z,65.30
2018-08-28T19:57:46.518Z,66.50
2018-08-28T20:00:15.507Z,66.90
2018-08-28T20:02:44.493Z,68.20
2018-08-28T20:05:13.412Z,70.70
2018-08-28T20:07:42.337Z,68.80
2018-08-28T20:10:11.237Z,69.00
2018-08-28T20:12:40.142Z,70.80
2018-08-28T20:15:09.133Z,72.30
2018-08-28T20:17:38.096Z,75.50
2018-08-28T20:20:07.521Z,76.80
2018-08-28T20:22:36.607Z,76.20
2018-08-28T20:25:05.827Z,76.30
2018-08-28T20:27:36.118Z,76.40
2018-08-28T20:30:05.150Z,76.60
2018-08-28T20:32:34.059Z,77.20
2018-08-28T20:35:03.481Z,77.80
2018-08-28T20:37:32.438Z,78.20
2018-08-28T20:40:01.377Z,79.20
2018-08-28T20:42:30.339Z,80.20
2018-08-28T20:44:59.369Z,81.90
2018-08-28T20:47:28.312Z,85.10
2018-08-28T20:49:57.315Z,87.50
2018-08-28T20:52:26.445Z,88.00
2018-08-28T20:54:55.512Z,89.40
2018-08-28T20:57:24.529Z,90.20
2018-08-28T20:59:53.379Z,90.20
2018-08-28T21:02:22.324Z,90.10
2018-08-28T21:04:51.651Z,90.70
2018-08-28T21:07:21.181Z,90.90
2018-08-28T21:09:50.083Z,90.00
2018-08-28T21:12:19.228Z,90.00
2018-08-28T21:14:48.129Z,90.70
2018-08-28T21:17:17.036Z,91.10
2018-08-28T21:19:45.908Z,91.60
2018-08-28T21:22:14.829Z,91.30
2018-08-28T21:24:43.733Z,91.70
2018-08-28T21:27:12.584Z,91.60
2018-08-28T21:29:41.513Z,92.70
2018-08-28T21:32:10.508Z,92.50
2018-08-28T21:34:39.435Z,93.00
2018-08-28T21:37:08.300Z,93.20
2018-08-28T21:39:37.179Z,94.30
2018-08-28T21:42:06.219Z,95.10
2018-08-28T21:44:35.244Z,95.90
2018-08-28T21:47:04.179Z,96.50
2018-08-28T21:49:33.119Z,96.10
2018-08-28T21:52:06.260Z,96.10
2018-08-28T21:54:35.142Z,95.20
2018-08-28T21:57:04.155Z,95.10
2018-08-28T21:59:33.062Z,94.30
2018-08-28T22:02:01.971Z,94.30
2018-08-28T22:04:30.872Z,95.50
2018-08-28T22:07:04.967Z,94.70
2018-08-28T22:09:33.823Z,95.60
2018-08-28T22:12:02.792Z,94.70
2018-08-28T22:14:31.695Z,94.60
2018-08-28T22:17:00.616Z,95.20
2018-08-28T22:19:29.613Z,94.70
2018-08-28T22:21:58.715Z,94.70
2018-08-28T22:24:27.691Z,95.40
2018-08-28T22:26:56.639Z,95.70
2018-08-28T22:29:26.280Z,96.80
2018-08-28T22:31:55.390Z,97.00
2018-08-28T22:34:24.328Z,97.60
2018-08-28T22:36:55.291Z,97.90
2018-08-28T22:39:24.179Z,99.90
2018-08-28T22:41:53.242Z,99.90
2018-08-28T22:44:22.497Z,99.90
2018-08-28T22:46:51.361Z,99.90
2018-08-28T22:49:20.223Z,99.90
2018-08-28T22:51:49.350Z,99.90
2018-08-28T22:54:18.349Z,99.90
2018-08-28T22:56:47.255Z,99.90
2018-08-28T22:59:16.168Z,99.90
2018-08-28T23:01:45.045Z,99.90
2018-08-28T23:04:13.963Z,99.90
2018-08-28T23:06:42.893Z,99.90
2018-08-28T23:09:11.814Z,99.90
2018-08-28T23:11:40.744Z,99.90
2018-08-28T23:14:09.612Z,99.90
2018-08-28T23:16:38.550Z,99.90
2018-08-28T23:19:07.479Z,99.90
2018-08-28T23:21:36.335Z,99.90
2018-08-28T23:24:05.336Z,99.90
2018-08-28T23:26:34.207Z,99.90
2018-08-28T23:29:03.092Z,99.90
2018-08-28T23:31:32.028Z,99.90
2018-08-28T23:34:00.967Z,99.90
2018-08-28T23:36:29.948Z,99.90
2018-08-28T23:38:58.905Z,99.90
2018-08-28T23:41:27.825Z,99.90
2018-08-28T23:43:56.721Z,99.90
2018-08-28T23:46:25.585Z,99.90
2018-08-28T23:48:54.465Z,99.90
2018-08-28T23:51:23.311Z,99.90
2018-08-28T23:53:52.165Z,99.90
2018-08-28T23:56:21.169Z,99.90
2018-08-28T23:58:50.111Z,99.90
